Time;durP1;ratioP1;P1;durP2;ratioP2;P2;SDS_P1;SDS_P2;PMS_P1;PMS_P2;Temp;Humidity;BMP_temperature;BMP_pressure;BME280_temperature;BME280_humidity;BME280_pressure;Samples;Min_cycle;Max_cycle;Signal;HPM_P1;HPM_P2
2021/04/04 00:01:54;;;;;;;31.77;14.28;;;;;;;0.67;77.77;101282.04;1673057;85;21601;-73
2021/04/04 00:04:20;;;;;;;48.92;21.02;;;;;;;0.58;77.77;101287.78;1712300;82;22098;-73
2021/04/04 00:06:47;;;;;;;66.53;25.75;;;;;;;0.53;77.82;101291.95;1701502;84;21514;-73
2021/04/04 00:09:15;;;;;;;82.95;29.18;;;;;;;0.54;77.85;101287.56;1730657;82;21187;-73
2021/04/04 00:11:41;;;;;;;43.35;17.48;;;;;;;0.57;77.86;101287.39;1701179;84;21600;-73
2021/04/04 00:14:07;;;;;;;36.03;16.27;;;;;;;0.58;77.88;101287.31;1721369;82;21552;-73
2021/04/04 00:16:34;;;;;;;57.53;27.77;;;;;;;0.60;77.88;101282.00;1681467;85;22708;-73
2021/04/04 00:19:00;;;;;;;81.90;34.92;;;;;;;0.58;77.91;101279.91;1728888;83;21183;-73
2021/04/04 00:21:26;;;;;;;105.85;45.60;;;;;;;0.53;77.95;101275.39;1729091;83;21175;-73
2021/04/04 00:23:53;;;;;;;96.53;40.58;;;;;;;0.54;77.97;101282.31;1728960;83;21214;-73
2021/04/04 00:26:19;;;;;;;91.63;38.13;;;;;;;0.56;78.00;101280.47;1728850;82;21179;-73
2021/04/04 00:28:45;;;;;;;89.62;40.17;;;;;;;0.56;78.01;101283.95;1730868;82;21204;-74
2021/04/04 00:31:12;;;;;;;82.20;34.48;;;;;;;0.57;78.01;101284.77;1701405;84;21167;-73
2021/04/04 00:33:38;;;;;;;86.55;39.55;;;;;;;0.49;78.04;101285.21;1730755;82;21155;-73
2021/04/04 00:36:05;;;;;;;103.10;41.18;;;;;;;0.40;78.07;101287.86;1701456;84;21199;-73
2021/04/04 00:38:31;;;;;;;65.40;28.70;;;;;;;0.37;78.06;101285.41;1727001;82;21203;-73
2021/04/04 00:40:57;;;;;;;37.55;15.65;;;;;;;0.38;78.05;101282.33;1673862;84;21287;-73
2021/04/04 00:43:24;;;;;;;31.25;12.55;;;;;;;0.33;78.04;101281.25;1673887;85;21201;-74
2021/04/04 00:45:51;;;;;;;23.35;11.03;;;;;;;0.19;78.03;101279.84;1687959;84;21142;-73
2021/04/04 00:48:17;;;;;;;22.82;10.53;;;;;;;0.07;78.06;101281.79;1687913;85;21592;-73
2021/04/04 00:50:43;;;;;;;24.55;11.57;;;;;;;0.01;78.10;101288.68;1688073;85;21175;-73
2021/04/04 00:53:09;;;;;;;27.95;10.90;;;;;;;-0.06;78.10;101288.62;1687786;85;21204;-73
2021/04/04 00:55:36;;;;;;;50.75;20.35;;;;;;;-0.13;78.10;101283.31;1687991;84;21218;-73
2021/04/04 00:58:03;;;;;;;120.20;37.60;;;;;;;-0.18;78.11;101282.73;1687699;85;21147;-73
2021/04/04 01:00:32;;;;;;;159.87;50.48;;;;;;;-0.21;78.12;101285.51;1697176;84;21489;-73
2021/04/04 01:02:58;;;;;;;175.18;54.00;;;;;;;-0.23;78.13;101300.45;1697167;84;21168;-73
2021/04/04 01:05:31;;;;;;;141.50;46.40;;;;;;;-0.25;78.15;101293.14;1691528;84;21203;-73
2021/04/04 01:07:57;;;;;;;121.90;44.73;;;;;;;-0.26;78.15;101296.68;1642375;86;21654;-73
2021/04/04 01:10:28;;;;;;;95.92;40.40;;;;;;;-0.23;78.17;101300.45;1669056;84;21186;-73
2021/04/04 01:13:31;;;;;;;61.10;27.02;;;;;;;-0.20;78.21;101301.59;1669087;86;21231;-73
2021/04/04 01:16:14;;;;;;;33.18;13.98;;;;;;;-0.15;78.27;101296.98;1669026;85;21745;-73
2021/04/04 01:19:05;;;;;;;25.70;12.40;;;;;;;-0.17;78.30;101294.88;1654074;84;21222;-73
2021/04/04 01:21:39;;;;;;;33.58;13.15;;;;;;;-0.27;78.34;101293.21;1697181;84;21236;-73
2021/04/04 01:24:16;;;;;;;26.07;13.90;;;;;;;-0.30;78.42;101289.90;1696992;83;21212;-73
2021/04/04 01:26:57;;;;;;;29.50;14.35;;;;;;;-0.34;78.47;101289.67;1696950;84;21211;-73
2021/04/04 01:29:24;;;;;;;24.67;12.40;;;;;;;-0.40;78.48;101293.92;1697136;84;21613;-73
2021/04/04 01:31:51;;;;;;;23.52;10.70;;;;;;;-0.45;78.53;101286.74;1697172;84;22035;-72
2021/04/04 01:34:22;;;;;;;25.82;11.05;;;;;;;-0.44;78.55;101281.44;1697281;84;21152;-73
2021/04/04 01:36:52;;;;;;;24.43;10.30;;;;;;;-0.44;78.55;101278.82;1695303;84;21216;-73
2021/04/04 01:39:21;;;;;;;26.73;11.55;;;;;;;-0.49;78.56;101278.69;1698939;82;21232;-73
2021/04/04 01:41:48;;;;;;;27.90;11.93;;;;;;;-0.49;78.59;101278.69;1700286;84;21172;-73
2021/04/04 01:44:16;;;;;;;26.45;12.82;;;;;;;-0.48;78.62;101272.04;1697247;84;22152;-73
2021/04/04 01:46:45;;;;;;;31.42;13.30;;;;;;;-0.41;78.64;101271.26;1672010;85;21162;-73
2021/04/04 01:49:11;;;;;;;31.00;13.18;;;;;;;-0.45;78.63;101266.64;1671972;84;21154;-73
2021/04/04 01:51:37;;;;;;;49.67;17.92;;;;;;;-0.47;78.67;101267.65;1672049;85;21166;-73
2021/04/04 01:54:05;;;;;;;34.88;15.28;;;;;;;-0.46;78.70;101269.36;1671853;85;21624;-73
2021/04/04 01:56:31;;;;;;;38.20;13.83;;;;;;;-0.47;78.70;101268.96;1672002;85;21284;-73
2021/04/04 01:58:58;;;;;;;35.50;15.45;;;;;;;-0.51;78.73;101270.89;1646720;85;21214;-73
2021/04/04 02:01:24;;;;;;;33.28;15.72;;;;;;;-0.55;78.74;101271.51;1647034;85;21166;-73
2021/04/04 02:03:51;;;;;;;37.23;15.60;;;;;;;-0.61;78.73;101263.97;1671889;85;21165;-73
2021/04/04 02:06:17;;;;;;;42.38;15.00;;;;;;;-0.64;78.76;101268.06;1671943;85;21584;-73
2021/04/04 02:08:44;;;;;;;34.33;14.05;;;;;;;-0.63;78.77;101265.80;1671998;84;22073;-73
2021/04/04 02:11:12;;;;;;;30.72;13.93;;;;;;;-0.66;78.76;101257.25;1671988;85;21146;-73
2021/04/04 02:13:38;;;;;;;30.95;12.98;;;;;;;-0.65;78.76;101256.34;1691066;84;21188;-73
2021/04/04 02:16:06;;;;;;;26.68;12.58;;;;;;;-0.65;78.76;101255.88;1700142;84;21562;-73
2021/04/04 02:18:32;;;;;;;30.75;12.90;;;;;;;-0.73;78.79;101256.72;1700078;84;21160;-73
2021/04/04 02:20:59;;;;;;;26.60;14.18;;;;;;;-0.82;78.79;101254.58;1700102;84;21212;-73
2021/04/04 02:23:26;;;;;;;30.80;15.32;;;;;;;-0.90;78.79;101267.19;1700134;83;21157;-73
2021/04/04 02:25:54;;;;;;;34.48;15.98;;;;;;;-1.01;78.80;101265.10;1700250;83;21626;-73
2021/04/04 02:28:22;;;;;;;27.60;13.93;;;;;;;-1.09;78.79;101259.88;1700118;83;21152;-72
2021/04/04 02:30:49;;;;;;;27.50;12.90;;;;;;;-1.16;78.83;101259.79;1700164;83;21566;-72
2021/04/04 02:33:32;;;;;;;21.65;11.00;;;;;;;-1.11;78.84;101255.16;1700115;84;22410;-72
2021/04/04 02:36:07;;;;;;;21.82;10.60;;;;;;;-1.15;78.83;101257.08;1700015;84;21952;-72
2021/04/04 02:38:37;;;;;;;21.35;11.53;;;;;;;-1.20;78.86;101259.09;1700071;83;21156;-72
2021/04/04 02:41:05;;;;;;;31.45;15.90;;;;;;;-1.22;78.89;101260.06;1699900;84;21144;-72
2021/04/04 02:43:32;;;;;;;24.23;12.45;;;;;;;-1.24;78.89;101261.92;1684274;84;21656;-72
2021/04/04 02:45:58;;;;;;;19.00;10.15;;;;;;;-1.21;78.92;101259.15;1674132;84;21204;-72
2021/04/04 02:48:28;;;;;;;21.02;10.00;;;;;;;-1.14;78.95;101257.93;1673921;84;21195;-73
2021/04/04 02:50:58;;;;;;;20.08;10.10;;;;;;;-1.08;78.97;101256.31;1672094;85;21146;-73
2021/04/04 02:53:25;;;;;;;20.12;9.08;;;;;;;-1.05;79.00;101252.23;1672262;84;21182;-73
2021/04/04 02:55:51;;;;;;;19.07;9.10;;;;;;;-1.00;79.00;101258.10;1672139;85;21187;-73
2021/04/04 02:58:17;;;;;;;18.12;8.35;;;;;;;-0.99;79.00;101253.72;1672052;85;21195;-73
2021/04/04 03:00:44;;;;;;;18.02;8.75;;;;;;;-0.96;79.00;101250.95;1672108;85;21195;-73
2021/04/04 03:03:10;;;;;;;21.45;10.48;;;;;;;-0.89;79.05;101249.27;1671791;85;21139;-73
2021/04/04 03:05:36;;;;;;;19.48;10.18;;;;;;;-0.88;79.08;101244.39;1672058;85;21525;-72
2021/04/04 03:08:05;;;;;;;21.68;11.00;;;;;;;-0.88;79.12;101247.50;1672059;85;21186;-73
2021/04/04 03:10:31;;;;;;;28.60;11.85;;;;;;;-0.88;79.13;101246.19;1672079;84;22146;-73
2021/04/04 03:12:57;;;;;;;23.77;11.80;;;;;;;-0.93;79.16;101246.41;1672002;84;21627;-72
2021/04/04 03:15:23;;;;;;;20.32;11.30;;;;;;;-0.98;79.18;101248.39;1672033;85;21174;-73
2021/04/04 03:17:50;;;;;;;20.45;10.53;;;;;;;-1.00;79.18;101250.25;1687089;84;21204;-72
2021/04/04 03:20:17;;;;;;;25.17;11.83;;;;;;;-1.03;79.18;101247.78;1699755;84;21188;-73
2021/04/04 03:22:45;;;;;;;20.45;10.25;;;;;;;-1.07;79.17;101248.86;1700392;83;22216;-73
2021/04/04 03:25:12;;;;;;;26.10;10.15;;;;;;;-1.11;79.17;101247.31;1684232;84;21195;-72
2021/04/04 03:27:44;;;;;;;20.62;9.20;;;;;;;-1.10;79.16;101250.32;1700343;84;21144;-72
2021/04/04 03:32:58;;;;;;;36.05;12.70;;;;;;;-1.17;79.17;101255.47;1700320;84;21152;-73
2021/04/04 03:35:25;;;;;;;23.90;11.45;;;;;;;-1.24;79.17;101246.22;1700062;83;21197;-73
2021/04/04 03:37:51;;;;;;;41.20;22.30;;;;;;;-1.31;79.16;101248.74;1700111;83;21164;-73
2021/04/04 03:40:18;;;;;;;36.53;19.82;;;;;;;-1.31;79.19;101243.52;1697767;83;21161;-72
2021/04/04 03:42:44;;;;;;;26.27;13.88;;;;;;;-1.36;79.18;101242.88;1697192;84;21164;-72
2021/04/04 03:45:12;;;;;;;36.15;16.77;;;;;;;-1.44;79.21;101242.41;1690454;84;21159;-73
2021/04/04 03:47:38;;;;;;;55.43;22.05;;;;;;;-1.53;79.19;101244.99;1620441;86;22119;-73
2021/04/04 03:50:05;;;;;;;45.03;19.80;;;;;;;-1.59;79.24;101246.14;1669247;86;21203;-73
2021/04/04 03:52:32;;;;;;;50.23;19.37;;;;;;;-1.64;79.22;101245.50;1693989;84;21197;-73
2021/04/04 03:54:59;;;;;;;75.72;27.82;;;;;;;-1.67;79.25;101248.26;1697268;84;21613;-72
2021/04/04 03:57:25;;;;;;;73.12;24.98;;;;;;;-1.71;79.25;101249.31;1697221;83;21232;-72
2021/04/04 03:59:52;;;;;;;59.03;18.75;;;;;;;-1.78;79.27;101250.52;1697145;84;21469;-72
2021/04/04 04:02:22;;;;;;;49.60;19.70;;;;;;;-1.83;79.25;101251.17;1697270;84;21164;-72
2021/04/04 04:04:49;;;;;;;64.55;22.90;;;;;;;-1.85;79.26;101250.41;1697342;84;21194;-72
2021/04/04 04:07:15;;;;;;;69.15;21.62;;;;;;;-1.85;79.26;101256.95;1697118;83;21136;-72
2021/04/04 04:09:41;;;;;;;57.73;20.95;;;;;;;-1.85;79.27;101255.64;1697293;84;21208;-72
2021/04/04 04:12:08;;;;;;;61.80;19.87;;;;;;;-1.85;79.30;101262.17;1697010;84;21254;-72
2021/04/04 04:14:35;;;;;;;49.38;19.05;;;;;;;-1.83;79.31;101263.42;1697310;84;21149;-72
2021/04/04 04:17:03;;;;;;;45.40;19.12;;;;;;;-1.79;79.35;101266.26;1679184;84;21171;-72
2021/04/04 04:19:29;;;;;;;46.55;18.80;;;;;;;-1.73;79.37;101265.55;1685278;84;21209;-72
2021/04/04 04:21:56;;;;;;;58.23;25.90;;;;;;;-1.66;79.39;101266.95;1668948;85;21609;-72
2021/04/04 04:24:22;;;;;;;88.60;44.10;;;;;;;-1.61;79.44;101264.95;1641452;86;21280;-72
2021/04/04 04:26:49;;;;;;;98.72;47.80;;;;;;;-1.57;79.46;101268.28;1669068;85;21167;-72
2021/04/04 04:29:16;;;;;;;97.55;53.95;;;;;;;-1.53;79.50;101274.61;1669066;85;21194;-72
2021/04/04 04:31:47;;;;;;;116.03;52.38;;;;;;;-1.51;79.51;101272.76;1669069;86;21210;-72
2021/04/04 04:34:14;;;;;;;94.00;40.43;;;;;;;-1.46;79.56;101278.23;1669261;84;21143;-72
2021/04/04 04:36:40;;;;;;;106.95;49.50;;;;;;;-1.43;79.59;101283.32;1668993;85;21224;-72
2021/04/04 04:39:09;;;;;;;133.70;59.05;;;;;;;-1.39;79.61;101282.27;1669458;84;21612;-72
2021/04/04 04:41:39;;;;;;;137.00;63.35;;;;;;;-1.36;79.67;101275.57;1671700;84;21178;-72
2021/04/04 04:44:07;;;;;;;145.07;68.28;;;;;;;-1.34;79.73;101272.44;1647461;85;21190;-72
2021/04/04 04:46:34;;;;;;;153.72;75.62;;;;;;;-1.31;79.77;101265.75;1671895;84;21718;-72
2021/04/04 04:49:01;;;;;;;112.22;57.80;;;;;;;-1.26;79.82;101271.59;1672059;84;21224;-73
2021/04/04 04:51:27;;;;;;;94.22;46.23;;;;;;;-1.20;79.86;101276.09;1671770;85;21655;-73
2021/04/04 04:53:54;;;;;;;73.40;32.10;;;;;;;-1.10;79.93;101276.49;1672022;85;21158;-72
2021/04/04 04:56:20;;;;;;;60.83;27.27;;;;;;;-1.01;79.97;101274.72;1671989;85;21151;-72
2021/04/04 04:58:47;;;;;;;64.22;27.42;;;;;;;-0.95;80.00;101277.03;1671817;85;21147;-72
2021/04/04 05:01:18;;;;;;;61.63;22.30;;;;;;;-0.93;80.06;101276.52;1646715;85;21228;-73
2021/04/04 05:03:46;;;;;;;51.05;19.65;;;;;;;-0.85;80.08;101270.45;1646461;84;21197;-73
2021/04/04 05:06:12;;;;;;;48.70;18.82;;;;;;;-0.77;80.12;101278.74;1646724;85;21238;-73
2021/04/04 05:08:44;;;;;;;50.67;18.73;;;;;;;-0.68;80.17;101275.68;1671718;85;21210;-73
2021/04/04 05:11:13;;;;;;;43.83;17.57;;;;;;;-0.61;80.23;101267.90;1672101;84;21202;-73
2021/04/04 05:13:40;;;;;;;42.33;16.55;;;;;;;-0.32;80.24;101268.19;1672023;85;21302;-73
2021/04/04 05:16:14;;;;;;;44.73;19.98;;;;;;;-0.07;80.26;101272.53;1671887;85;21174;-73
2021/04/04 05:18:50;;;;;;;87.47;34.33;;;;;;;0.15;80.29;101281.39;1672098;85;21175;-73
2021/04/04 05:21:29;;;;;;;78.65;39.40;;;;;;;1.00;80.49;101276.19;1671937;84;21158;-74
2021/04/04 05:24:10;;;;;;;90.80;50.90;;;;;;;2.10;80.56;101271.80;1669872;85;21644;-73
2021/04/04 05:26:46;;;;;;;50.08;25.80;;;;;;;3.01;80.42;101264.16;1671971;85;22074;-74
2021/04/04 05:29:16;;;;;;;49.45;24.75;;;;;;;4.15;80.26;101266.42;1672048;84;21595;-74
2021/04/04 05:31:49;;;;;;;73.97;28.47;;;;;;;4.89;79.70;101272.12;1672117;85;21202;-74
2021/04/04 05:34:18;;;;;;;98.37;32.90;;;;;;;4.94;78.65;101272.13;1671920;85;21167;-74
2021/04/04 05:36:53;;;;;;;67.35;25.32;;;;;;;4.70;78.19;101273.08;1671796;85;21673;-74
2021/04/04 05:39:20;;;;;;;42.15;20.50;;;;;;;4.41;78.20;101277.80;1675396;83;22176;-74
2021/04/04 05:41:49;;;;;;;39.58;19.73;;;;;;;4.27;78.33;101276.13;1700020;83;21156;-74
2021/04/04 05:44:32;;;;;;;46.42;22.52;;;;;;;4.28;78.40;101270.38;1658099;85;21661;-74
2021/04/04 05:47:05;;;;;;;39.13;19.48;;;;;;;4.33;78.47;101269.09;1646448;85;21589;-74
2021/04/04 05:50:21;;;;;;;50.28;22.62;;;;;;;4.26;78.49;101262.56;1671752;85;21215;-74
2021/04/04 05:53:08;;;;;;;56.65;21.37;;;;;;;4.29;78.46;101263.66;1671999;85;22125;-74
2021/04/04 05:55:44;;;;;;;35.80;16.40;;;;;;;4.27;78.29;101263.41;1671440;85;21219;-74
2021/04/04 05:58:13;;;;;;;33.85;15.45;;;;;;;4.40;78.12;101265.53;1647716;84;21203;-74
2021/04/04 06:00:47;;;;;;;25.50;11.48;;;;;;;4.44;78.06;101268.33;1676304;84;21180;-75
2021/04/04 06:03:47;;;;;;;26.75;12.30;;;;;;;4.47;77.95;101263.67;1693393;84;21152;-75
2021/04/04 06:06:45;;;;;;;29.87;17.05;;;;;;;4.35;77.83;101263.24;1715758;83;22081;-75
2021/04/04 06:09:47;;;;;;;31.60;17.35;;;;;;;4.26;77.68;101263.87;1689791;84;21164;-75
2021/04/04 06:12:46;;;;;;;31.00;17.48;;;;;;;4.43;77.60;101264.84;1681385;84;21166;-76
2021/04/04 06:15:57;;;;;;;29.77;14.73;;;;;;;4.61;77.43;101271.92;1695286;84;21228;-76
2021/04/04 06:18:48;;;;;;;29.02;15.23;;;;;;;4.76;77.26;101264.69;1704607;83;21243;-75
2021/04/04 06:21:23;;;;;;;28.30;13.40;;;;;;;4.86;77.07;101269.20;1700869;83;21294;-76
2021/04/04 06:24:43;;;;;;;27.42;13.83;;;;;;;5.01;76.87;101267.23;1700940;83;21252;-76
2021/04/04 06:27:18;;;;;;;37.17;16.17;;;;;;;5.13;76.69;101266.34;1701056;83;21591;-76
2021/04/04 06:30:21;;;;;;;27.87;15.13;;;;;;;5.29;76.40;101261.58;1697157;84;21128;-75
2021/04/04 06:33:03;;;;;;;25.12;14.68;;;;;;;5.29;76.22;101264.23;1669391;86;21183;-76
2021/04/04 06:35:38;;;;;;;24.05;12.33;;;;;;;5.21;76.03;101259.98;1699072;84;21283;-76
2021/04/04 06:38:27;;;;;;;22.60;11.90;;;;;;;5.36;75.90;101264.61;1699385;84;21175;-75
2021/04/04 06:41:08;;;;;;;28.70;13.68;;;;;;;5.46;75.71;101261.16;1684071;84;21180;-74
2021/04/04 06:43:53;;;;;;;28.25;13.98;;;;;;;5.57;75.51;101259.49;1725822;83;21983;-75
2021/04/04 06:46:42;;;;;;;22.73;12.10;;;;;;;5.64;75.34;101255.42;1696731;82;21166;-76
2021/04/04 06:49:22;;;;;;;27.40;14.68;;;;;;;5.74;75.23;101258.56;1725733;81;22121;-74
2021/04/04 06:51:57;;;;;;;23.73;12.55;;;;;;;5.83;75.06;101253.05;1720060;83;21150;-75
2021/04/04 06:54:59;;;;;;;21.82;11.63;;;;;;;6.02;74.86;101249.36;1714748;83;21712;-75
2021/04/04 06:57:43;;;;;;;21.30;11.08;;;;;;;6.14;74.70;101247.09;1723638;83;21174;-75
2021/04/04 07:00:14;;;;;;;25.75;11.85;;;;;;;6.16;74.55;101245.66;1724057;83;21138;-75
2021/04/04 07:03:09;;;;;;;17.30;8.23;;;;;;;6.18;74.41;101237.94;1716340;82;21715;-75
2021/04/04 07:05:47;;;;;;;19.17;7.58;;;;;;;6.21;74.17;101240.34;1695083;84;21178;-76
2021/04/04 07:08:47;;;;;;;15.95;8.73;;;;;;;6.06;73.93;101230.10;1695175;83;21167;-76
2021/04/04 07:11:44;;;;;;;21.30;11.25;;;;;;;6.03;73.80;101225.90;1719496;83;21167;-76
2021/04/04 07:14:42;;;;;;;16.82;10.78;;;;;;;5.98;73.60;101222.79;1700976;84;21143;-76
2021/04/04 07:17:45;;;;;;;20.23;11.38;;;;;;;5.91;73.42;101226.37;1694275;82;22206;-76
2021/04/04 07:20:35;;;;;;;30.15;14.35;;;;;;;6.03;73.31;101225.90;1724769;83;21178;-76
2021/04/04 07:23:45;;;;;;;23.90;12.23;;;;;;;6.01;73.23;101230.48;1701075;84;21167;-76
2021/04/04 07:26:58;;;;;;;22.80;11.12;;;;;;;5.97;73.02;101229.88;1720393;83;21150;-76
2021/04/04 07:29:49;;;;;;;20.72;8.73;;;;;;;6.00;72.90;101231.44;1697088;83;21611;-76
2021/04/04 07:32:46;;;;;;;13.03;7.47;;;;;;;6.06;72.78;101227.45;1720762;83;21208;-76
2021/04/04 07:35:16;;;;;;;13.40;7.58;;;;;;;6.12;72.67;101234.46;1700293;84;21179;-77
2021/04/04 07:37:46;;;;;;;19.40;7.95;;;;;;;6.22;72.58;101230.12;1687769;84;21146;-76
2021/04/04 07:40:16;;;;;;;16.05;7.72;;;;;;;6.32;72.46;101233.72;1700819;83;21213;-76
2021/04/04 07:42:49;;;;;;;;;;;;;;;6.45;72.33;101230.44;1676455;84;21181;-76
2021/04/04 07:45:29;;;;;;;20.95;9.93;;;;;;;6.34;72.09;101234.42;1701112;84;21306;-77
2021/04/04 07:48:06;;;;;;;30.82;12.35;;;;;;;6.36;72.01;101239.14;1673653;84;21172;-77
2021/04/04 07:50:40;;;;;;;12.82;7.30;;;;;;;6.50;71.92;101236.22;1698591;84;21136;-75
2021/04/04 07:53:22;;;;;;;14.58;8.80;;;;;;;6.59;71.80;101231.13;1693433;83;21194;-76
2021/04/04 07:56:07;;;;;;;15.78;8.98;;;;;;;6.57;71.64;101237.05;1702574;83;21152;-77
2021/04/04 07:58:42;;;;;;;12.15;6.65;;;;;;;6.72;71.57;101237.14;1687642;84;21229;-75
2021/04/04 08:01:18;;;;;;;12.35;6.72;;;;;;;6.82;71.37;101239.40;1693396;84;21838;-77
2021/04/04 08:04:09;;;;;;;16.37;7.08;;;;;;;6.97;71.25;101235.47;1710648;82;21660;-76
2021/04/04 08:06:40;;;;;;;10.72;5.83;;;;;;;7.02;71.08;101239.92;1720095;83;21188;-75
2021/04/04 08:09:29;;;;;;;11.45;6.17;;;;;;;6.95;70.82;101236.94;1700541;83;21166;-75
2021/04/04 08:12:10;;;;;;;13.23;5.63;;;;;;;6.98;70.62;101238.48;1720692;83;22121;-75
2021/04/04 08:15:02;;;;;;;12.25;5.50;;;;;;;7.03;70.38;101245.11;1727297;82;21195;-75
2021/04/04 08:17:29;;;;;;;10.82;5.62;;;;;;;7.06;70.16;101229.42;1724545;83;21147;-75
2021/04/04 08:20:03;;;;;;;12.05;5.08;;;;;;;7.11;70.00;101229.86;1722617;83;21124;-75
2021/04/04 08:22:37;;;;;;;8.40;4.37;;;;;;;7.19;69.80;101235.38;1710673;83;21167;-75
2021/04/04 08:25:13;;;;;;;8.30;3.50;;;;;;;7.20;69.59;101233.09;1721815;83;21217;-75
2021/04/04 08:27:54;;;;;;;6.85;3.37;;;;;;;7.34;69.43;101235.44;1716734;83;21700;-75
2021/04/04 08:30:33;;;;;;;7.28;2.58;;;;;;;7.30;69.17;101228.70;1702129;83;21190;-75
2021/04/04 08:33:06;;;;;;;6.97;2.60;;;;;;;7.32;68.97;101232.05;1712495;83;21168;-75
2021/04/04 08:35:37;;;;;;;9.63;3.65;;;;;;;7.29;68.71;101228.34;1725632;83;21158;-75
2021/04/04 08:38:13;;;;;;;7.10;4.30;;;;;;;7.42;68.56;101231.63;1709846;83;22154;-76
2021/04/04 08:40:39;;;;;;;6.47;2.92;;;;;;;7.50;68.26;101235.81;1711711;82;21644;-75
2021/04/04 08:43:06;;;;;;;9.60;2.50;;;;;;;7.45;67.97;101238.03;1721032;83;21742;-75
2021/04/04 08:45:43;;;;;;;5.10;2.20;;;;;;;7.52;67.77;101236.55;1713204;83;21120;-76
2021/04/04 08:48:09;;;;;;;6.72;3.12;;;;;;;7.66;67.59;101241.16;1699712;83;21652;-76
2021/04/04 08:50:36;;;;;;;6.17;2.92;;;;;;;7.83;67.38;101236.58;1668547;83;21681;-77
2021/04/04 08:53:14;;;;;;;9.60;4.28;;;;;;;8.02;67.21;101230.05;1711702;83;21169;-76
2021/04/04 08:55:40;;;;;;;5.40;3.02;;;;;;;8.15;66.99;101226.66;1680311;84;21192;-76
2021/04/04 08:58:07;;;;;;;7.92;3.12;;;;;;;8.17;66.66;101223.37;1630924;86;21199;-76
2021/04/04 09:00:33;;;;;;;8.50;4.42;;;;;;;8.20;66.46;101219.11;1720191;83;21151;-77
2021/04/04 09:03:05;;;;;;;10.72;4.33;;;;;;;8.39;66.35;101217.89;1721632;83;21645;-76
2021/04/04 09:05:34;;;;;;;12.33;6.00;;;;;;;8.56;66.13;101214.21;1719854;83;21143;-77
2021/04/04 09:08:02;;;;;;;9.70;4.17;;;;;;;8.88;65.90;101212.16;1692985;83;21208;-76
2021/04/04 09:10:29;;;;;;;6.80;3.42;;;;;;;8.99;65.52;101214.70;1692235;84;21139;-77
2021/04/04 09:12:56;;;;;;;7.30;4.00;;;;;;;8.96;65.29;101210.98;1701513;83;21152;-77
2021/04/04 09:15:22;;;;;;;9.73;3.77;;;;;;;8.95;64.99;101205.31;1692040;84;21212;-77
2021/04/04 09:17:53;;;;;;;8.33;4.08;;;;;;;9.03;64.62;101208.12;1692781;84;21625;-77
2021/04/04 09:20:36;;;;;;;6.97;4.03;;;;;;;9.16;64.44;101208.66;1680412;84;21187;-76
2021/04/04 09:23:03;;;;;;;6.47;2.75;;;;;;;9.16;64.05;101211.33;1683836;84;21187;-76
2021/04/04 09:25:32;;;;;;;8.10;2.55;;;;;;;9.18;63.79;101208.54;1687524;84;21163;-76
2021/04/04 09:28:02;;;;;;;8.20;2.85;;;;;;;9.28;63.62;101198.72;1684591;84;22207;-76
2021/04/04 09:33:13;;;;;;;6.12;2.90;;;;;;;9.34;62.92;101197.66;1801678;77;22087;-75
2021/04/04 09:35:41;;;;;;;8.68;4.25;;;;;;;9.47;62.68;101186.20;1771029;79;21202;-75
2021/04/04 09:38:10;;;;;;;9.63;4.30;;;;;;;9.69;62.32;101191.69;1764620;79;21195;-75
2021/04/04 09:40:37;;;;;;;7.25;3.12;;;;;;;9.75;62.05;101191.59;1755951;79;21215;-75
2021/04/04 09:43:08;;;;;;;7.15;4.15;;;;;;;9.75;61.74;101176.45;1764593;81;21182;-75
2021/04/04 09:45:35;;;;;;;6.33;2.30;;;;;;;9.77;61.11;101179.83;1774180;79;21179;-77
2021/04/04 09:48:24;;;;;;;7.03;1.87;;;;;;;9.81;60.39;101185.70;1789570;79;21148;-77
2021/04/04 09:51:15;;;;;;;17.70;9.80;;;;;;;9.77;60.03;101182.98;1788123;79;21296;-77
2021/04/04 09:53:48;;;;;;;14.93;5.42;;;;;;;10.01;59.66;101176.64;1764306;81;21219;-77
2021/04/04 09:56:19;;;;;;;9.43;5.15;;;;;;;10.12;59.12;101170.28;1777311;79;21175;-76
2021/04/04 09:58:47;;;;;;;11.48;3.72;;;;;;;10.07;58.90;101169.38;1793748;79;21155;-75
2021/04/04 10:01:28;;;;;;;6.37;2.90;;;;;;;10.13;58.54;101167.48;1794090;80;21151;-75
2021/04/04 10:04:00;;;;;;;10.35;3.83;;;;;;;10.16;58.30;101164.55;1794044;80;21196;-76
2021/04/04 10:06:31;;;;;;;10.23;5.40;;;;;;;9.99;57.94;101170.63;1769829;79;21187;-75
2021/04/04 10:08:59;;;;;;;12.00;5.12;;;;;;;9.84;57.82;101158.77;1787699;79;21580;-77
2021/04/04 10:11:26;;;;;;;6.28;3.30;;;;;;;9.55;57.57;101158.86;1786898;79;21639;-75
2021/04/04 10:14:16;;;;;;;15.70;7.58;;;;;;;9.09;57.40;101151.67;1764826;81;21131;-75
2021/04/04 10:16:43;;;;;;;14.93;6.83;;;;;;;8.70;57.25;101151.33;1765076;80;21895;-75
2021/04/04 10:19:12;;;;;;;19.23;11.30;;;;;;;8.16;57.19;101143.34;1779247;79;21683;-75
2021/04/04 10:21:40;;;;;;;15.10;6.70;;;;;;;7.90;57.16;101145.63;1796027;79;21147;-75
2021/04/04 10:24:30;;;;;;;28.45;11.12;;;;;;;7.96;57.21;101140.25;1795711;79;21183;-75
2021/04/04 10:27:28;;;;;;;32.83;12.05;;;;;;;8.02;57.21;101135.75;1785111;79;21592;-75
2021/04/04 10:33:22;;;;;;;9.45;5.00;;;;;;;8.73;56.97;101131.95;1851149;77;22858;-76
2021/04/04 10:35:49;;;;;;;18.25;8.25;;;;;;;8.84;56.81;101141.61;1810895;78;21164;-76
2021/04/04 10:38:22;;;;;;;18.52;6.65;;;;;;;8.77;56.59;101132.02;1803163;78;21191;-76
2021/04/04 10:40:55;;;;;;;9.68;5.37;;;;;;;8.57;56.39;101118.87;1818439;78;21695;-76
2021/04/04 10:43:23;;;;;;;8.53;4.97;;;;;;;8.74;56.34;101120.83;1805260;78;21135;-76
2021/04/04 10:46:03;;;;;;;19.45;7.60;;;;;;;8.75;56.19;101118.52;1756698;80;21232;-76
2021/04/04 10:48:33;;;;;;;10.10;5.80;;;;;;;8.84;56.14;101106.55;1760075;80;21172;-76
2021/04/04 10:50:59;;;;;;;10.28;5.25;;;;;;;8.82;55.68;101111.66;1747047;81;21203;-76
2021/04/04 10:53:26;;;;;;;16.35;6.50;;;;;;;8.82;55.39;101096.55;1739236;80;21191;-76
2021/04/04 10:55:52;;;;;;;12.93;4.58;;;;;;;8.92;55.18;101098.70;1724008;81;21207;-76
2021/04/04 10:58:21;;;;;;;5.67;2.85;;;;;;;9.05;54.99;101094.40;1782945;80;22668;-76
2021/04/04 11:00:48;;;;;;;7.60;3.05;;;;;;;9.06;54.65;101093.43;1767434;80;21127;-76
2021/04/04 11:03:14;;;;;;;5.30;2.30;;;;;;;9.05;54.44;101091.73;1778415;80;21196;-76
2021/04/04 11:05:40;;;;;;;9.45;4.83;;;;;;;9.02;54.36;101090.22;1738576;80;21179;-76
2021/04/04 11:08:07;;;;;;;5.60;3.08;;;;;;;9.07;54.19;101080.48;1786709;80;21167;-76
2021/04/04 11:10:35;;;;;;;6.00;3.47;;;;;;;9.19;54.06;101073.99;1786351;80;21896;-75
2021/04/04 11:13:03;;;;;;;8.83;4.45;;;;;;;9.18;53.88;101071.00;1787064;80;21159;-76
2021/04/04 11:15:31;;;;;;;12.75;5.85;;;;;;;9.06;53.68;101077.47;1741595;80;21280;-76
2021/04/04 11:17:59;;;;;;;14.93;5.92;;;;;;;9.01;53.56;101069.91;1755812;80;21607;-76
2021/04/04 11:20:26;;;;;;;12.45;5.05;;;;;;;9.07;53.41;101065.84;1721992;81;21127;-76
2021/04/04 11:22:52;;;;;;;9.93;4.30;;;;;;;9.10;53.22;101057.58;1768225;80;21180;-76
2021/04/04 11:25:18;;;;;;;7.80;3.90;;;;;;;9.06;53.08;101055.34;1734336;81;21168;-76
2021/04/04 11:27:48;;;;;;;8.00;3.87;;;;;;;8.94;52.91;101048.00;1739360;81;21210;-76
2021/04/04 11:30:36;;;;;;;7.53;3.83;;;;;;;8.93;52.78;101045.02;1772064;80;21188;-77
2021/04/04 11:33:23;;;;;;;7.58;3.77;;;;;;;8.93;52.58;101038.38;1776428;80;21879;-77
2021/04/04 11:36:09;;;;;;;11.30;5.85;;;;;;;9.06;52.41;101036.23;1731440;81;21088;-77
2021/04/04 11:38:50;;;;;;;7.47;3.98;;;;;;;9.10;52.22;101030.97;1740271;81;21617;-76
2021/04/04 11:41:21;;;;;;;7.08;2.90;;;;;;;9.09;52.02;101026.63;1722825;81;21139;-76
2021/04/04 11:43:50;;;;;;;15.60;6.97;;;;;;;9.12;51.82;101013.02;1754901;81;21181;-76
2021/04/04 11:46:49;;;;;;;14.35;5.12;;;;;;;9.09;51.50;101009.81;1733699;81;21132;-76
2021/04/04 11:49:53;;;;;;;11.38;4.75;;;;;;;9.23;51.43;101004.86;1756346;81;21616;-76
2021/04/04 11:52:25;;;;;;;9.48;4.70;;;;;;;9.24;51.26;101003.88;1756326;81;21100;-76
2021/04/04 11:54:56;;;;;;;9.13;3.75;;;;;;;9.22;50.98;100995.19;1756456;81;21301;-76
2021/04/04 11:57:30;;;;;;;15.98;4.20;;;;;;;9.20;50.67;100998.51;1756457;81;21645;-77